Monte Vista, California
Current Conditions -  °F | °C
As of 3:56 AM on Sunday 23 Nov 2014 (Local Time) from KNUQ Reporting Station
Clear Clear  
Wind Chill: 51°   Ceiling: Unl
Heat Index: 51°   Visibility: 10mi
Dew Point: 49°   Wind: 6mph
Humidity: 92%   Direction: 270°W
Pressure: 30.28"   Gusts: NA
Location:  37.305°N, 122.094°W
Report Text: KNUQ 231156Z AUTO 27005KT 10SM CLR 11/09 A3028 RMK AO2 SLP256 70001 T01060094 10128 20100 53008 TSNO
Loading
Personal Weather Stations






























Interactive Weather Map New forecast layout! Learn more

10-Day Weather Forecast

Advertisements
Track Severe Weather on mobile